sensor_id;sensor_type;location;lat;lon;timestamp;P1;durP1;ratioP1;P2;durP2;ratioP2
2748;SDS011;1382;52.142;11.618;2023-06-22T00:01:04;10.37;;;9.33;;
2748;SDS011;1382;52.142;11.618;2023-06-22T00:03:31;11.07;;;9.83;;
2748;SDS011;1382;52.142;11.618;2023-06-22T00:05:58;9.77;;;8.87;;
2748;SDS011;1382;52.142;11.618;2023-06-22T00:08:25;13.07;;;8.97;;
2748;SDS011;1382;52.142;11.618;2023-06-22T00:10:51;9.93;;;8.93;;
2748;SDS011;1382;52.142;11.618;2023-06-22T00:13:20;9.73;;;8.77;;
2748;SDS011;1382;52.142;11.618;2023-06-22T00:15:47;9.97;;;8.37;;
2748;SDS011;1382;52.142;11.618;2023-06-22T00:18:13;9.40;;;8.50;;
2748;SDS011;1382;52.142;11.618;2023-06-22T00:20:41;12.00;;;8.67;;
2748;SDS011;1382;52.142;11.618;2023-06-22T00:23:08;12.20;;;8.03;;
2748;SDS011;1382;52.142;11.618;2023-06-22T00:25:35;10.67;;;9.53;;
2748;SDS011;1382;52.142;11.618;2023-06-22T00:28:02;11.73;;;9.53;;
2748;SDS011;1382;52.142;11.618;2023-06-22T00:30:30;10.47;;;9.47;;
2748;SDS011;1382;52.142;11.618;2023-06-22T00:32:57;12.53;;;10.33;;
2748;SDS011;1382;52.142;11.618;2023-06-22T00:35:25;11.63;;;10.50;;
2748;SDS011;1382;52.142;11.618;2023-06-22T00:37:52;11.10;;;10.00;;
2748;SDS011;1382;52.142;11.618;2023-06-22T00:40:19;10.80;;;9.63;;
2748;SDS011;1382;52.142;11.618;2023-06-22T00:42:46;12.03;;;10.80;;
2748;SDS011;1382;52.142;11.618;2023-06-22T00:45:13;11.67;;;10.13;;
2748;SDS011;1382;52.142;11.618;2023-06-22T00:47:41;11.40;;;10.20;;
2748;SDS011;1382;52.142;11.618;2023-06-22T00:50:08;12.53;;;11.20;;
2748;SDS011;1382;52.142;11.618;2023-06-22T00:52:41;12.33;;;11.13;;
2748;SDS011;1382;52.142;11.618;2023-06-22T00:55:08;12.53;;;9.37;;
2748;SDS011;1382;52.142;11.618;2023-06-22T00:57:36;10.03;;;9.03;;
2748;SDS011;1382;52.142;11.618;2023-06-22T01:00:03;11.37;;;8.40;;
2748;SDS011;1382;52.142;11.618;2023-06-22T01:02:31;10.47;;;9.37;;
2748;SDS011;1382;52.142;11.618;2023-06-22T01:04:59;12.73;;;10.80;;
2748;SDS011;1382;52.142;11.618;2023-06-22T01:07:28;12.50;;;11.10;;
2748;SDS011;1382;52.142;11.618;2023-06-22T01:10:03;11.33;;;9.23;;
2748;SDS011;1382;52.142;11.618;2023-06-22T01:12:34;8.80;;;8.00;;
2748;SDS011;1382;52.142;11.618;2023-06-22T01:15:08;11.47;;;10.30;;
2748;SDS011;1382;52.142;11.618;2023-06-22T01:17:38;13.07;;;11.70;;
2748;SDS011;1382;52.142;11.618;2023-06-22T01:20:10;12.97;;;11.77;;
2748;SDS011;1382;52.142;11.618;2023-06-22T01:22:43;14.83;;;12.27;;
2748;SDS011;1382;52.142;11.618;2023-06-22T01:25:19;14.60;;;13.10;;
2748;SDS011;1382;52.142;11.618;2023-06-22T01:27:47;13.73;;;11.37;;
2748;SDS011;1382;52.142;11.618;2023-06-22T01:30:24;15.13;;;12.90;;
2748;SDS011;1382;52.142;11.618;2023-06-22T01:32:53;14.30;;;11.40;;
2748;SDS011;1382;52.142;11.618;2023-06-22T01:35:21;11.90;;;10.70;;
2748;SDS011;1382;52.142;11.618;2023-06-22T01:37:48;10.80;;;9.70;;
2748;SDS011;1382;52.142;11.618;2023-06-22T01:40:16;11.03;;;9.57;;
2748;SDS011;1382;52.142;11.618;2023-06-22T01:42:44;11.40;;;10.30;;
2748;SDS011;1382;52.142;11.618;2023-06-22T01:45:11;13.17;;;11.57;;
2748;SDS011;1382;52.142;11.618;2023-06-22T01:47:40;12.30;;;11.10;;
2748;SDS011;1382;52.142;11.618;2023-06-22T01:50:08;11.67;;;9.90;;
2748;SDS011;1382;52.142;11.618;2023-06-22T01:52:35;10.20;;;8.93;;
2748;SDS011;1382;52.142;11.618;2023-06-22T01:55:02;11.10;;;10.00;;
2748;SDS011;1382;52.142;11.618;2023-06-22T01:57:29;12.83;;;11.53;;
2748;SDS011;1382;52.142;11.618;2023-06-22T01:59:58;10.97;;;9.97;;
2748;SDS011;1382;52.142;11.618;2023-06-22T02:02:27;13.40;;;11.33;;
2748;SDS011;1382;52.142;11.618;2023-06-22T02:05:01;11.17;;;10.07;;
2748;SDS011;1382;52.142;11.618;2023-06-22T02:07:32;12.20;;;11.00;;
2748;SDS011;1382;52.142;11.618;2023-06-22T02:10:05;16.67;;;11.53;;
2748;SDS011;1382;52.142;11.618;2023-06-22T02:12:33;12.07;;;10.87;;
2748;SDS011;1382;52.142;11.618;2023-06-22T02:15:02;13.80;;;10.93;;
2748;SDS011;1382;52.142;11.618;2023-06-22T02:17:29;12.00;;;10.73;;
2748;SDS011;1382;52.142;11.618;2023-06-22T02:19:56;11.80;;;10.63;;
2748;SDS011;1382;52.142;11.618;2023-06-22T02:22:24;12.70;;;11.37;;
2748;SDS011;1382;52.142;11.618;2023-06-22T02:24:51;13.57;;;12.30;;
2748;SDS011;1382;52.142;11.618;2023-06-22T02:27:18;16.27;;;11.23;;
2748;SDS011;1382;52.142;11.618;2023-06-22T02:29:45;12.90;;;11.60;;
2748;SDS011;1382;52.142;11.618;2023-06-22T02:32:11;12.70;;;10.63;;
2748;SDS011;1382;52.142;11.618;2023-06-22T02:34:38;13.80;;;10.43;;
2748;SDS011;1382;52.142;11.618;2023-06-22T02:37:05;11.17;;;9.70;;
2748;SDS011;1382;52.142;11.618;2023-06-22T02:39:33;15.50;;;12.17;;
2748;SDS011;1382;52.142;11.618;2023-06-22T02:42:00;11.27;;;10.10;;
2748;SDS011;1382;52.142;11.618;2023-06-22T02:44:27;12.37;;;11.20;;
2748;SDS011;1382;52.142;11.618;2023-06-22T02:46:53;10.70;;;9.60;;
2748;SDS011;1382;52.142;11.618;2023-06-22T02:49:20;15.87;;;11.80;;
2748;SDS011;1382;52.142;11.618;2023-06-22T02:51:48;12.00;;;10.70;;
2748;SDS011;1382;52.142;11.618;2023-06-22T02:54:14;13.33;;;12.00;;
2748;SDS011;1382;52.142;11.618;2023-06-22T02:56:43;11.63;;;10.50;;
2748;SDS011;1382;52.142;11.618;2023-06-22T02:59:10;12.73;;;10.67;;
2748;SDS011;1382;52.142;11.618;2023-06-22T03:01:37;13.57;;;12.17;;
2748;SDS011;1382;52.142;11.618;2023-06-22T03:04:04;13.70;;;10.50;;
2748;SDS011;1382;52.142;11.618;2023-06-22T03:06:31;13.37;;;10.67;;
2748;SDS011;1382;52.142;11.618;2023-06-22T03:08:58;11.50;;;10.30;;
2748;SDS011;1382;52.142;11.618;2023-06-22T03:11:26;12.70;;;11.50;;
2748;SDS011;1382;52.142;11.618;2023-06-22T03:13:55;10.30;;;9.20;;
2748;SDS011;1382;52.142;11.618;2023-06-22T03:16:21;15.30;;;11.13;;
2748;SDS011;1382;52.142;11.618;2023-06-22T03:18:48;9.87;;;8.97;;
2748;SDS011;1382;52.142;11.618;2023-06-22T03:21:15;15.40;;;10.17;;
2748;SDS011;1382;52.142;11.618;2023-06-22T03:23:42;10.00;;;9.00;;
2748;SDS011;1382;52.142;11.618;2023-06-22T03:26:09;10.90;;;9.80;;
2748;SDS011;1382;52.142;11.618;2023-06-22T03:28:36;9.37;;;8.47;;
2748;SDS011;1382;52.142;11.618;2023-06-22T03:31:04;9.57;;;8.67;;
2748;SDS011;1382;52.142;11.618;2023-06-22T03:33:31;9.17;;;8.37;;
2748;SDS011;1382;52.142;11.618;2023-06-22T03:35:58;9.93;;;9.03;;
2748;SDS011;1382;52.142;11.618;2023-06-22T03:38:25;9.30;;;8.40;;
2748;SDS011;1382;52.142;11.618;2023-06-22T03:40:51;10.50;;;8.57;;
2748;SDS011;1382;52.142;11.618;2023-06-22T03:43:18;11.40;;;9.33;;
2748;SDS011;1382;52.142;11.618;2023-06-22T03:45:45;10.50;;;9.60;;
2748;SDS011;1382;52.142;11.618;2023-06-22T03:48:13;13.80;;;9.97;;
2748;SDS011;1382;52.142;11.618;2023-06-22T03:50:40;10.13;;;8.70;;
2748;SDS011;1382;52.142;11.618;2023-06-22T03:53:07;9.23;;;8.37;;
2748;SDS011;1382;52.142;11.618;2023-06-22T03:55:34;9.43;;;8.50;;
2748;SDS011;1382;52.142;11.618;2023-06-22T03:58:01;10.83;;;8.30;;
2748;SDS011;1382;52.142;11.618;2023-06-22T04:00:27;10.60;;;9.60;;
2748;SDS011;1382;52.142;11.618;2023-06-22T04:02:55;10.47;;;9.47;;
2748;SDS011;1382;52.142;11.618;2023-06-22T04:05:23;10.00;;;8.73;;
2748;SDS011;1382;52.142;11.618;2023-06-22T04:07:50;8.80;;;8.00;;
2748;SDS011;1382;52.142;11.618;2023-06-22T04:10:16;9.73;;;8.50;;
2748;SDS011;1382;52.142;11.618;2023-06-22T04:12:43;10.20;;;8.67;;
2748;SDS011;1382;52.142;11.618;2023-06-22T04:15:10;9.87;;;8.67;;
2748;SDS011;1382;52.142;11.618;2023-06-22T04:17:37;10.13;;;8.90;;
2748;SDS011;1382;52.142;11.618;2023-06-22T04:20:04;9.23;;;8.33;;
2748;SDS011;1382;52.142;11.618;2023-06-22T04:22:33;9.60;;;8.60;;
2748;SDS011;1382;52.142;11.618;2023-06-22T04:25:00;8.33;;;7.57;;
2748;SDS011;1382;52.142;11.618;2023-06-22T04:27:27;9.70;;;8.70;;
2748;SDS011;1382;52.142;11.618;2023-06-22T04:29:54;10.30;;;8.80;;
2748;SDS011;1382;52.142;11.618;2023-06-22T04:32:20;10.23;;;9.17;;
2748;SDS011;1382;52.142;11.618;2023-06-22T04:34:47;10.13;;;9.07;;
2748;SDS011;1382;52.142;11.618;2023-06-22T04:37:14;12.50;;;11.30;;
2748;SDS011;1382;52.142;11.618;2023-06-22T04:39:42;11.60;;;9.60;;
2748;SDS011;1382;52.142;11.618;2023-06-22T04:42:09;13.17;;;10.60;;
2748;SDS011;1382;52.142;11.618;2023-06-22T04:44:38;12.20;;;9.90;;
2748;SDS011;1382;52.142;11.618;2023-06-22T04:47:05;9.23;;;8.33;;
2748;SDS011;1382;52.142;11.618;2023-06-22T04:49:31;10.17;;;9.17;;
2748;SDS011;1382;52.142;11.618;2023-06-22T04:51:58;13.20;;;10.60;;
2748;SDS011;1382;52.142;11.618;2023-06-22T04:54:26;11.23;;;9.97;;
2748;SDS011;1382;52.142;11.618;2023-06-22T04:56:54;13.30;;;9.90;;
2748;SDS011;1382;52.142;11.618;2023-06-22T04:59:21;10.80;;;9.70;;
2748;SDS011;1382;52.142;11.618;2023-06-22T05:01:48;11.80;;;10.67;;
2748;SDS011;1382;52.142;11.618;2023-06-22T05:04:14;10.67;;;9.63;;
2748;SDS011;1382;52.142;11.618;2023-06-22T05:06:42;21.70;;;12.00;;
2748;SDS011;1382;52.142;11.618;2023-06-22T05:09:08;11.80;;;10.50;;
2748;SDS011;1382;52.142;11.618;2023-06-22T05:11:35;11.67;;;10.33;;
2748;SDS011;1382;52.142;11.618;2023-06-22T05:14:03;15.60;;;10.53;;
2748;SDS011;1382;52.142;11.618;2023-06-22T05:16:30;10.90;;;7.93;;
2748;SDS011;1382;52.142;11.618;2023-06-22T05:18:57;12.20;;;10.53;;
2748;SDS011;1382;52.142;11.618;2023-06-22T05:21:24;11.10;;;10.00;;
2748;SDS011;1382;52.142;11.618;2023-06-22T05:23:52;12.67;;;10.80;;
2748;SDS011;1382;52.142;11.618;2023-06-22T05:26:20;13.60;;;8.93;;
2748;SDS011;1382;52.142;11.618;2023-06-22T05:28:47;11.07;;;10.00;;
2748;SDS011;1382;52.142;11.618;2023-06-22T05:31:15;11.97;;;10.80;;
2748;SDS011;1382;52.142;11.618;2023-06-22T05:33:43;11.33;;;10.17;;
2748;SDS011;1382;52.142;11.618;2023-06-22T05:36:10;17.20;;;11.70;;
2748;SDS011;1382;52.142;11.618;2023-06-22T05:38:37;18.33;;;12.00;;
2748;SDS011;1382;52.142;11.618;2023-06-22T05:41:04;13.30;;;12.00;;
2748;SDS011;1382;52.142;11.618;2023-06-22T05:43:31;16.90;;;11.73;;
2748;SDS011;1382;52.142;11.618;2023-06-22T05:46:00;13.83;;;12.40;;
2748;SDS011;1382;52.142;11.618;2023-06-22T05:48:29;12.77;;;11.03;;
2748;SDS011;1382;52.142;11.618;2023-06-22T05:50:55;13.03;;;11.23;;
2748;SDS011;1382;52.142;11.618;2023-06-22T05:53:22;14.67;;;11.17;;
2748;SDS011;1382;52.142;11.618;2023-06-22T05:55:49;12.40;;;11.10;;
2748;SDS011;1382;52.142;11.618;2023-06-22T05:58:19;13.07;;;11.87;;
2748;SDS011;1382;52.142;11.618;2023-06-22T06:00:46;16.73;;;11.43;;
2748;SDS011;1382;52.142;11.618;2023-06-22T06:03:12;13.57;;;12.27;;
2748;SDS011;1382;52.142;11.618;2023-06-22T06:05:42;12.40;;;11.20;;
2748;SDS011;1382;52.142;11.618;2023-06-22T06:08:10;17.53;;;12.40;;
2748;SDS011;1382;52.142;11.618;2023-06-22T06:10:37;13.57;;;12.23;;
2748;SDS011;1382;52.142;11.618;2023-06-22T06:13:04;16.87;;;11.23;;
2748;SDS011;1382;52.142;11.618;2023-06-22T06:15:31;14.20;;;12.70;;
2748;SDS011;1382;52.142;11.618;2023-06-22T06:17:58;13.10;;;11.77;;
2748;SDS011;1382;52.142;11.618;2023-06-22T06:20:26;15.40;;;13.03;;
2748;SDS011;1382;52.142;11.618;2023-06-22T06:22:55;14.57;;;12.90;;
2748;SDS011;1382;52.142;11.618;2023-06-22T06:25:21;12.03;;;10.83;;
2748;SDS011;1382;52.142;11.618;2023-06-22T06:27:49;14.00;;;11.33;;
2748;SDS011;1382;52.142;11.618;2023-06-22T06:30:17;12.73;;;11.40;;
2748;SDS011;1382;52.142;11.618;2023-06-22T06:32:45;13.90;;;12.40;;
2748;SDS011;1382;52.142;11.618;2023-06-22T06:35:13;13.63;;;12.27;;
2748;SDS011;1382;52.142;11.618;2023-06-22T06:37:42;13.57;;;12.23;;
2748;SDS011;1382;52.142;11.618;2023-06-22T06:40:12;12.17;;;10.90;;
2748;SDS011;1382;52.142;11.618;2023-06-22T06:42:40;13.30;;;11.90;;
2748;SDS011;1382;52.142;11.618;2023-06-22T06:45:08;12.37;;;11.13;;
2748;SDS011;1382;52.142;11.618;2023-06-22T06:47:36;13.70;;;12.40;;
2748;SDS011;1382;52.142;11.618;2023-06-22T06:50:03;13.77;;;12.40;;
2748;SDS011;1382;52.142;11.618;2023-06-22T06:52:30;16.83;;;12.87;;
2748;SDS011;1382;52.142;11.618;2023-06-22T06:54:57;13.27;;;11.97;;
2748;SDS011;1382;52.142;11.618;2023-06-22T06:57:26;16.63;;;13.60;;
2748;SDS011;1382;52.142;11.618;2023-06-22T06:59:53;12.43;;;11.33;;
2748;SDS011;1382;52.142;11.618;2023-06-22T07:02:20;14.07;;;12.60;;
2748;SDS011;1382;52.142;11.618;2023-06-22T07:04:46;14.43;;;12.93;;
2748;SDS011;1382;52.142;11.618;2023-06-22T07:07:13;13.40;;;11.60;;
2748;SDS011;1382;52.142;11.618;2023-06-22T07:09:40;12.60;;;11.47;;
2748;SDS011;1382;52.142;11.618;2023-06-22T07:12:07;21.73;;;13.10;;
2748;SDS011;1382;52.142;11.618;2023-06-22T07:14:35;15.87;;;13.67;;
2748;SDS011;1382;52.142;11.618;2023-06-22T07:17:02;13.03;;;11.83;;
2748;SDS011;1382;52.142;11.618;2023-06-22T07:19:30;13.50;;;12.10;;
2748;SDS011;1382;52.142;11.618;2023-06-22T07:21:56;14.00;;;11.57;;
2748;SDS011;1382;52.142;11.618;2023-06-22T07:24:24;15.47;;;13.97;;
2748;SDS011;1382;52.142;11.618;2023-06-22T07:26:51;13.97;;;12.77;;
2748;SDS011;1382;52.142;11.618;2023-06-22T07:29:18;15.37;;;13.87;;
2748;SDS011;1382;52.142;11.618;2023-06-22T07:31:47;15.00;;;13.43;;
2748;SDS011;1382;52.142;11.618;2023-06-22T07:34:15;14.33;;;12.83;;
2748;SDS011;1382;52.142;11.618;2023-06-22T07:36:42;15.40;;;14.10;;
2748;SDS011;1382;52.142;11.618;2023-06-22T07:39:09;14.73;;;13.20;;
2748;SDS011;1382;52.142;11.618;2023-06-22T07:41:36;14.67;;;13.23;;
2748;SDS011;1382;52.142;11.618;2023-06-22T07:44:02;13.63;;;12.20;;
2748;SDS011;1382;52.142;11.618;2023-06-22T07:46:29;14.57;;;13.17;;
2748;SDS011;1382;52.142;11.618;2023-06-22T07:48:57;13.73;;;12.37;;
2748;SDS011;1382;52.142;11.618;2023-06-22T07:51:24;17.63;;;14.43;;
2748;SDS011;1382;52.142;11.618;2023-06-22T07:53:51;14.53;;;13.13;;
2748;SDS011;1382;52.142;11.618;2023-06-22T07:56:18;12.67;;;11.60;;
2748;SDS011;1382;52.142;11.618;2023-06-22T07:58:45;12.73;;;11.43;;
2748;SDS011;1382;52.142;11.618;2023-06-22T08:01:12;16.20;;;14.50;;
2748;SDS011;1382;52.142;11.618;2023-06-22T08:03:39;14.80;;;13.40;;
2748;SDS011;1382;52.142;11.618;2023-06-22T08:06:09;16.30;;;14.80;;
2748;SDS011;1382;52.142;11.618;2023-06-22T08:08:36;14.07;;;12.87;;
2748;SDS011;1382;52.142;11.618;2023-06-22T08:11:03;17.00;;;14.80;;
2748;SDS011;1382;52.142;11.618;2023-06-22T08:13:29;13.83;;;12.60;;
2748;SDS011;1382;52.142;11.618;2023-06-22T08:15:56;15.23;;;13.83;;
2748;SDS011;1382;52.142;11.618;2023-06-22T08:18:23;15.43;;;13.93;;
2748;SDS011;1382;52.142;11.618;2023-06-22T08:20:50;12.03;;;11.00;;
2748;SDS011;1382;52.142;11.618;2023-06-22T08:23:18;15.60;;;14.20;;
2748;SDS011;1382;52.142;11.618;2023-06-22T08:25:45;17.20;;;15.60;;
2748;SDS011;1382;52.142;11.618;2023-06-22T08:28:11;15.20;;;13.70;;
2748;SDS011;1382;52.142;11.618;2023-06-22T08:30:38;15.33;;;13.90;;
2748;SDS011;1382;52.142;11.618;2023-06-22T08:33:05;16.27;;;14.67;;
2748;SDS011;1382;52.142;11.618;2023-06-22T08:35:32;16.10;;;14.60;;
2748;SDS011;1382;52.142;11.618;2023-06-22T08:37:59;14.47;;;12.40;;
2748;SDS011;1382;52.142;11.618;2023-06-22T08:40:27;14.90;;;13.47;;
2748;SDS011;1382;52.142;11.618;2023-06-22T08:42:54;14.77;;;13.27;;
2748;SDS011;1382;52.142;11.618;2023-06-22T08:45:21;13.90;;;12.67;;
2748;SDS011;1382;52.142;11.618;2023-06-22T08:47:47;15.87;;;14.37;;
2748;SDS011;1382;52.142;11.618;2023-06-22T08:50:14;14.80;;;13.50;;
2748;SDS011;1382;52.142;11.618;2023-06-22T08:52:42;16.10;;;14.60;;
2748;SDS011;1382;52.142;11.618;2023-06-22T08:55:09;16.33;;;14.80;;
2748;SDS011;1382;52.142;11.618;2023-06-22T08:57:37;15.90;;;14.30;;
2748;SDS011;1382;52.142;11.618;2023-06-22T09:00:05;15.77;;;14.27;;
2748;SDS011;1382;52.142;11.618;2023-06-22T09:02:33;13.43;;;12.23;;
2748;SDS011;1382;52.142;11.618;2023-06-22T09:05:03;15.93;;;14.53;;
2748;SDS011;1382;52.142;11.618;2023-06-22T09:07:30;15.60;;;13.10;;
2748;SDS011;1382;52.142;11.618;2023-06-22T09:09:57;15.57;;;14.17;;
2748;SDS011;1382;52.142;11.618;2023-06-22T09:12:27;15.93;;;14.50;;
2748;SDS011;1382;52.142;11.618;2023-06-22T09:14:55;15.27;;;13.90;;
2748;SDS011;1382;52.142;11.618;2023-06-22T09:17:22;14.47;;;13.07;;
2748;SDS011;1382;52.142;11.618;2023-06-22T09:19:49;14.63;;;13.13;;
2748;SDS011;1382;52.142;11.618;2023-06-22T09:22:15;15.90;;;14.60;;
2748;SDS011;1382;52.142;11.618;2023-06-22T09:24:42;15.10;;;13.60;;
2748;SDS011;1382;52.142;11.618;2023-06-22T09:27:09;16.30;;;14.50;;
2748;SDS011;1382;52.142;11.618;2023-06-22T09:29:36;15.37;;;13.90;;
2748;SDS011;1382;52.142;11.618;2023-06-22T09:32:05;15.37;;;13.73;;
2748;SDS011;1382;52.142;11.618;2023-06-22T09:34:32;13.73;;;12.60;;
2748;SDS011;1382;52.142;11.618;2023-06-22T09:36:59;15.47;;;13.87;;
2748;SDS011;1382;52.142;11.618;2023-06-22T09:39:26;16.60;;;15.00;;
2748;SDS011;1382;52.142;11.618;2023-06-22T09:41:52;14.10;;;12.87;;
2748;SDS011;1382;52.142;11.618;2023-06-22T09:44:19;14.00;;;12.60;;
2748;SDS011;1382;52.142;11.618;2023-06-22T09:46:46;15.50;;;14.00;;
2748;SDS011;1382;52.142;11.618;2023-06-22T09:49:14;14.90;;;13.60;;
2748;SDS011;1382;52.142;11.618;2023-06-22T09:51:41;15.67;;;14.30;;
2748;SDS011;1382;52.142;11.618;2023-06-22T09:54:08;16.33;;;14.93;;
2748;SDS011;1382;52.142;11.618;2023-06-22T09:56:34;15.50;;;14.17;;
2748;SDS011;1382;52.142;11.618;2023-06-22T09:59:01;16.77;;;15.33;;
2748;SDS011;1382;52.142;11.618;2023-06-22T10:01:43;16.00;;;14.60;;
2748;SDS011;1382;52.142;11.618;2023-06-22T10:04:11;15.17;;;13.87;;
2748;SDS011;1382;52.142;11.618;2023-06-22T10:06:39;14.70;;;13.40;;
2748;SDS011;1382;52.142;11.618;2023-06-22T10:09:06;14.93;;;13.73;;
2748;SDS011;1382;52.142;11.618;2023-06-22T10:11:33;16.97;;;15.37;;
2748;SDS011;1382;52.142;11.618;2023-06-22T10:13:59;15.93;;;14.43;;
2748;SDS011;1382;52.142;11.618;2023-06-22T10:16:30;16.47;;;15.07;;
2748;SDS011;1382;52.142;11.618;2023-06-22T10:18:57;15.80;;;14.50;;
2748;SDS011;1382;52.142;11.618;2023-06-22T10:21:24;15.50;;;14.00;;
2748;SDS011;1382;52.142;11.618;2023-06-22T10:23:52;15.97;;;14.53;;
2748;SDS011;1382;52.142;11.618;2023-06-22T10:26:19;17.60;;;15.93;;
2748;SDS011;1382;52.142;11.618;2023-06-22T10:28:45;16.80;;;15.40;;
2748;SDS011;1382;52.142;11.618;2023-06-22T10:31:12;16.60;;;15.20;;
2748;SDS011;1382;52.142;11.618;2023-06-22T10:33:39;17.03;;;15.57;;
2748;SDS011;1382;52.142;11.618;2023-06-22T10:36:06;16.43;;;14.93;;
2748;SDS011;1382;52.142;11.618;2023-06-22T10:38:32;17.73;;;15.93;;
2748;SDS011;1382;52.142;11.618;2023-06-22T10:41:01;15.20;;;14.00;;
2748;SDS011;1382;52.142;11.618;2023-06-22T10:43:27;15.97;;;14.67;;
2748;SDS011;1382;52.142;11.618;2023-06-22T10:45:54;15.30;;;14.00;;
2748;SDS011;1382;52.142;11.618;2023-06-22T10:48:21;16.60;;;14.83;;
2748;SDS011;1382;52.142;11.618;2023-06-22T10:50:48;17.40;;;15.70;;
2748;SDS011;1382;52.142;11.618;2023-06-22T10:53:15;16.47;;;14.90;;
2748;SDS011;1382;52.142;11.618;2023-06-22T10:55:41;16.23;;;14.73;;
2748;SDS011;1382;52.142;11.618;2023-06-22T10:58:24;16.67;;;14.97;;
2748;SDS011;1382;52.142;11.618;2023-06-22T11:00:51;16.77;;;15.27;;
2748;SDS011;1382;52.142;11.618;2023-06-22T11:03:17;16.47;;;14.77;;
2748;SDS011;1382;52.142;11.618;2023-06-22T11:05:44;17.20;;;15.70;;
2748;SDS011;1382;52.142;11.618;2023-06-22T11:08:11;16.33;;;15.00;;
2748;SDS011;1382;52.142;11.618;2023-06-22T11:10:38;15.20;;;13.80;;
2748;SDS011;1382;52.142;11.618;2023-06-22T11:13:05;16.27;;;14.67;;
2748;SDS011;1382;52.142;11.618;2023-06-22T11:15:33;16.57;;;14.03;;
2748;SDS011;1382;52.142;11.618;2023-06-22T11:18:00;16.13;;;14.60;;
2748;SDS011;1382;52.142;11.618;2023-06-22T11:20:27;16.63;;;15.13;;
2748;SDS011;1382;52.142;11.618;2023-06-22T11:22:54;15.63;;;14.13;;
2748;SDS011;1382;52.142;11.618;2023-06-22T11:25:21;16.47;;;15.07;;
2748;SDS011;1382;52.142;11.618;2023-06-22T11:27:47;16.20;;;14.80;;
2748;SDS011;1382;52.142;11.618;2023-06-22T11:30:14;16.07;;;14.67;;
2748;SDS011;1382;52.142;11.618;2023-06-22T11:32:42;16.53;;;14.80;;
2748;SDS011;1382;52.142;11.618;2023-06-22T11:35:09;16.43;;;15.13;;
2748;SDS011;1382;52.142;11.618;2023-06-22T11:37:36;17.63;;;16.07;;
2748;SDS011;1382;52.142;11.618;2023-06-22T11:40:03;17.90;;;15.40;;
2748;SDS011;1382;52.142;11.618;2023-06-22T11:42:32;14.60;;;13.47;;
2748;SDS011;1382;52.142;11.618;2023-06-22T11:44:59;16.73;;;15.23;;
2748;SDS011;1382;52.142;11.618;2023-06-22T11:47:26;14.43;;;13.20;;
2748;SDS011;1382;52.142;11.618;2023-06-22T11:49:54;16.47;;;14.97;;
2748;SDS011;1382;52.142;11.618;2023-06-22T11:52:21;14.70;;;13.50;;
2748;SDS011;1382;52.142;11.618;2023-06-22T11:54:48;15.70;;;14.23;;
2748;SDS011;1382;52.142;11.618;2023-06-22T11:57:15;15.67;;;14.33;;
2748;SDS011;1382;52.142;11.618;2023-06-22T11:59:41;15.37;;;14.07;;
2748;SDS011;1382;52.142;11.618;2023-06-22T12:02:08;14.67;;;13.50;;
2748;SDS011;1382;52.142;11.618;2023-06-22T12:04:35;15.50;;;14.13;;
2748;SDS011;1382;52.142;11.618;2023-06-22T12:07:03;15.77;;;14.37;;
2748;SDS011;1382;52.142;11.618;2023-06-22T12:09:30;15.20;;;14.00;;
2748;SDS011;1382;52.142;11.618;2023-06-22T12:11:57;16.43;;;14.93;;
2748;SDS011;1382;52.142;11.618;2023-06-22T12:14:23;15.83;;;14.30;;
2748;SDS011;1382;52.142;11.618;2023-06-22T12:16:50;16.23;;;14.77;;
2748;SDS011;1382;52.142;11.618;2023-06-22T12:19:17;17.73;;;16.03;;
2748;SDS011;1382;52.142;11.618;2023-06-22T12:21:44;15.40;;;14.00;;
2748;SDS011;1382;52.142;11.618;2023-06-22T12:24:12;15.33;;;13.97;;
2748;SDS011;1382;52.142;11.618;2023-06-22T12:26:39;17.30;;;15.60;;
2748;SDS011;1382;52.142;11.618;2023-06-22T12:29:06;15.97;;;14.60;;
2748;SDS011;1382;52.142;11.618;2023-06-22T12:31:32;15.10;;;13.90;;
2748;SDS011;1382;52.142;11.618;2023-06-22T12:33:59;16.73;;;15.23;;
2748;SDS011;1382;52.142;11.618;2023-06-22T12:36:26;15.73;;;14.13;;
2748;SDS011;1382;52.142;11.618;2023-06-22T12:38:53;15.47;;;14.20;;
2748;SDS011;1382;52.142;11.618;2023-06-22T12:41:23;14.93;;;13.57;;
2748;SDS011;1382;52.142;11.618;2023-06-22T12:43:49;16.40;;;15.10;;
2748;SDS011;1382;52.142;11.618;2023-06-22T12:46:16;16.10;;;14.70;;
2748;SDS011;1382;52.142;11.618;2023-06-22T12:48:43;16.27;;;14.87;;
2748;SDS011;1382;52.142;11.618;2023-06-22T12:51:10;15.83;;;14.57;;
2748;SDS011;1382;52.142;11.618;2023-06-22T12:53:37;15.20;;;14.00;;
2748;SDS011;1382;52.142;11.618;2023-06-22T12:56:03;15.93;;;14.53;;
2748;SDS011;1382;52.142;11.618;2023-06-22T12:58:32;17.27;;;15.77;;
2748;SDS011;1382;52.142;11.618;2023-06-22T13:00:58;16.80;;;15.40;;
2748;SDS011;1382;52.142;11.618;2023-06-22T13:03:25;17.37;;;15.77;;
2748;SDS011;1382;52.142;11.618;2023-06-22T13:05:52;17.10;;;15.70;;
2748;SDS011;1382;52.142;11.618;2023-06-22T13:08:19;16.70;;;15.00;;
2748;SDS011;1382;52.142;11.618;2023-06-22T13:10:46;16.53;;;15.13;;
2748;SDS011;1382;52.142;11.618;2023-06-22T13:13:13;16.30;;;15.00;;
2748;SDS011;1382;52.142;11.618;2023-06-22T13:15:41;14.97;;;13.77;;
2748;SDS011;1382;52.142;11.618;2023-06-22T13:18:08;15.77;;;14.50;;
2748;SDS011;1382;52.142;11.618;2023-06-22T13:20:35;14.90;;;13.73;;
2748;SDS011;1382;52.142;11.618;2023-06-22T13:23:02;17.23;;;15.63;;
2748;SDS011;1382;52.142;11.618;2023-06-22T13:25:29;16.17;;;14.80;;
2748;SDS011;1382;52.142;11.618;2023-06-22T13:27:56;17.67;;;16.07;;
2748;SDS011;1382;52.142;11.618;2023-06-22T13:30:22;17.53;;;16.03;;
2748;SDS011;1382;52.142;11.618;2023-06-22T13:32:51;16.47;;;14.77;;
2748;SDS011;1382;52.142;11.618;2023-06-22T13:35:18;15.77;;;14.33;;
2748;SDS011;1382;52.142;11.618;2023-06-22T13:37:44;16.50;;;14.90;;
2748;SDS011;1382;52.142;11.618;2023-06-22T13:40:14;14.20;;;13.00;;
2748;SDS011;1382;52.142;11.618;2023-06-22T13:42:41;15.10;;;13.90;;
2748;SDS011;1382;52.142;11.618;2023-06-22T13:45:08;15.03;;;13.73;;
2748;SDS011;1382;52.142;11.618;2023-06-22T13:47:35;16.50;;;15.00;;
2748;SDS011;1382;52.142;11.618;2023-06-22T13:50:03;16.20;;;14.80;;
2748;SDS011;1382;52.142;11.618;2023-06-22T13:52:31;15.20;;;14.00;;
2748;SDS011;1382;52.142;11.618;2023-06-22T13:54:57;16.47;;;15.10;;
2748;SDS011;1382;52.142;11.618;2023-06-22T13:57:24;15.87;;;14.57;;
2748;SDS011;1382;52.142;11.618;2023-06-22T13:59:51;15.07;;;13.67;;
2748;SDS011;1382;52.142;11.618;2023-06-22T14:02:18;15.80;;;14.50;;
2748;SDS011;1382;52.142;11.618;2023-06-22T14:04:45;14.70;;;13.60;;
2748;SDS011;1382;52.142;11.618;2023-06-22T14:07:13;15.13;;;13.63;;
2748;SDS011;1382;52.142;11.618;2023-06-22T14:09:40;15.07;;;13.77;;
2748;SDS011;1382;52.142;11.618;2023-06-22T14:12:07;15.00;;;13.70;;
2748;SDS011;1382;52.142;11.618;2023-06-22T14:14:34;15.07;;;13.77;;
2748;SDS011;1382;52.142;11.618;2023-06-22T14:17:01;13.97;;;12.67;;
2748;SDS011;1382;52.142;11.618;2023-06-22T14:19:29;15.50;;;14.20;;
2748;SDS011;1382;52.142;11.618;2023-06-22T14:21:55;13.70;;;12.60;;
2748;SDS011;1382;52.142;11.618;2023-06-22T14:24:23;17.43;;;12.30;;
2748;SDS011;1382;52.142;11.618;2023-06-22T14:26:54;14.57;;;13.07;;
2748;SDS011;1382;52.142;11.618;2023-06-22T14:29:21;14.43;;;13.23;;
2748;SDS011;1382;52.142;11.618;2023-06-22T14:31:48;14.33;;;13.20;;
2748;SDS011;1382;52.142;11.618;2023-06-22T14:34:15;16.60;;;14.87;;
2748;SDS011;1382;52.142;11.618;2023-06-22T14:36:42;15.67;;;13.90;;
2748;SDS011;1382;52.142;11.618;2023-06-22T14:39:09;17.90;;;13.73;;